Time;durP1;ratioP1;P1;durP2;ratioP2;P2;SDS_P1;SDS_P2;PMS_P1;PMS_P2;Temp;Humidity;BMP_temperature;BMP_pressure;BME280_temperature;BME280_humidity;BME280_pressure;Samples;Min_cycle;Max_cycle;Signal;HPM_P1;HPM_P2
2023/01/18 00:00:39;;;;;;;0.30;0.30;;;;;;;;;;4995705;28;20534;-39
2023/01/18 00:03:07;;;;;;;0.40;0.32;;;;;;;;;;5013161;28;20044;-39
2023/01/18 00:05:33;;;;;;;0.22;0.20;;;;;;;;;;5013048;28;20483;-39
2023/01/18 00:07:58;;;;;;;0.30;0.30;;;;;;;;;;5013020;28;20030;-39
2023/01/18 00:10:24;;;;;;;0.40;0.40;;;;;;;;;;4995259;28;20028;-39
2023/01/18 00:12:49;;;;;;;0.30;0.30;;;;;;;;;;5013188;28;20201;-39
2023/01/18 00:15:15;;;;;;;0.32;0.32;;;;;;;;;;4995355;28;20018;-39
2023/01/18 00:17:46;;;;;;;0.40;0.40;;;;;;;;;;5012775;28;20041;-39
2023/01/18 00:20:15;;;;;;;0.45;0.30;;;;;;;;;;5012472;28;20034;-39
2023/01/18 00:22:40;;;;;;;0.35;0.35;;;;;;;;;;5012816;28;20518;-39
2023/01/18 00:25:05;;;;;;;0.20;0.20;;;;;;;;;;5012665;28;20121;-39
2023/01/18 00:27:31;;;;;;;0.22;0.22;;;;;;;;;;5012686;28;20468;-39
2023/01/18 00:29:58;;;;;;;0.40;0.40;;;;;;;;;;5012710;28;20125;-39
2023/01/18 00:32:24;;;;;;;0.32;0.30;;;;;;;;;;5012552;28;20101;-39
2023/01/18 00:34:49;;;;;;;0.20;0.20;;;;;;;;;;5012705;28;20105;-39
2023/01/18 00:37:14;;;;;;;0.25;0.25;;;;;;;;;;5012629;28;20494;-39
2023/01/18 00:39:40;;;;;;;1.38;0.60;;;;;;;;;;5012710;28;20714;-39
2023/01/18 00:44:49;;;;;;;0.20;0.20;;;;;;;;;;4994907;28;20041;-39
2023/01/18 00:47:15;;;;;;;0.50;0.50;;;;;;;;;;5012247;28;20022;-39
2023/01/18 00:49:41;;;;;;;0.40;0.40;;;;;;;;;;5012389;28;20041;-39
2023/01/18 00:52:06;;;;;;;0.50;0.50;;;;;;;;;;5012348;28;20021;-39
2023/01/18 00:54:31;;;;;;;0.40;0.40;;;;;;;;;;5012574;28;20365;-39
2023/01/18 00:56:57;;;;;;;0.40;0.40;;;;;;;;;;5012098;28;20077;-38
2023/01/18 01:02:58;;;;;;;0.30;0.30;;;;;;;;;;5012149;28;20052;-39
2023/01/18 01:08:15;;;;;;;0.73;0.40;;;;;;;;;;5012028;28;20476;-39
2023/01/18 01:10:41;;;;;;;0.30;0.30;;;;;;;;;;5012221;28;20029;-39
2023/01/18 01:26:47;;;;;;;0.75;0.50;;;;;;;;;;4994304;28;20033;-39
2023/01/18 01:29:12;;;;;;;0.30;0.30;;;;;;;;;;4994668;28;20022;-39
2023/01/18 01:31:38;;;;;;;0.55;0.40;;;;;;;;;;4994920;28;20025;-40
2023/01/18 01:34:03;;;;;;;1.00;0.77;;;;;;;;;;4998580;28;20029;-40
2023/01/18 01:36:29;;;;;;;0.60;0.40;;;;;;;;;;4998078;28;20496;-40
2023/01/18 01:38:54;;;;;;;0.30;0.30;;;;;;;;;;4997696;28;20032;-39
2023/01/18 01:41:33;;;;;;;0.20;0.20;;;;;;;;;;5015253;28;20044;-39
2023/01/18 01:44:24;;;;;;;0.63;0.45;;;;;;;;;;5015276;28;20029;-39
2023/01/18 01:47:03;;;;;;;0.60;0.40;;;;;;;;;;5015012;28;20056;-39
2023/01/18 01:49:31;;;;;;;0.40;0.40;;;;;;;;;;5015209;28;20112;-39
2023/01/18 01:51:59;;;;;;;0.40;0.40;;;;;;;;;;5015030;28;20018;-39
2023/01/18 01:54:27;;;;;;;0.80;0.50;;;;;;;;;;5015022;28;20041;-39
2023/01/18 01:56:56;;;;;;;1.17;0.63;;;;;;;;;;4997609;28;20391;-39
2023/01/18 01:59:22;;;;;;;0.30;0.30;;;;;;;;;;4997517;28;20402;-39
2023/01/18 02:01:48;;;;;;;0.40;0.40;;;;;;;;;;4997455;28;20026;-39
2023/01/18 02:04:13;;;;;;;0.30;0.30;;;;;;;;;;5014858;28;20065;-39
2023/01/18 02:06:39;;;;;;;0.45;0.45;;;;;;;;;;5014707;28;20061;-39
2023/01/18 02:09:09;;;;;;;0.52;0.52;;;;;;;;;;5014977;28;20618;-38
2023/01/18 02:11:36;;;;;;;0.60;0.60;;;;;;;;;;4997516;28;20049;-39
2023/01/18 02:14:08;;;;;;;0.50;0.50;;;;;;;;;;5015020;28;20036;-39
2023/01/18 02:16:55;;;;;;;0.85;0.40;;;;;;;;;;5014856;28;20036;-39
2023/01/18 02:19:30;;;;;;;0.60;0.60;;;;;;;;;;5014511;28;20140;-39
2023/01/18 02:22:02;;;;;;;0.68;0.40;;;;;;;;;;5014532;28;20026;-39
2023/01/18 02:24:47;;;;;;;0.75;0.57;;;;;;;;;;5014471;28;20026;-39
2023/01/18 02:27:13;;;;;;;0.45;0.45;;;;;;;;;;5014533;28;20038;-40
2023/01/18 02:29:52;;;;;;;1.40;0.55;;;;;;;;;;5014368;28;20396;-39
2023/01/18 02:32:36;;;;;;;0.40;0.40;;;;;;;;;;5014572;28;20116;-39
2023/01/18 02:35:05;;;;;;;0.60;0.60;;;;;;;;;;5014300;28;20068;-39
2023/01/18 02:37:41;;;;;;;0.20;0.20;;;;;;;;;;5014150;28;20062;-39
2023/01/18 02:40:16;;;;;;;0.45;0.43;;;;;;;;;;4996495;28;20572;-39
2023/01/18 02:48:37;;;;;;;0.30;0.30;;;;;;;;;;5014241;28;20037;-39
2023/01/18 02:51:03;;;;;;;0.55;0.55;;;;;;;;;;5014178;28;20105;-39
2023/01/18 02:53:29;;;;;;;0.60;0.45;;;;;;;;;;5013913;28;20029;-39
2023/01/18 02:56:03;;;;;;;0.73;0.60;;;;;;;;;;5013884;28;20041;-39
2023/01/18 02:58:35;;;;;;;0.57;0.35;;;;;;;;;;5013654;28;20045;-38
2023/01/18 03:01:04;;;;;;;1.13;0.40;;;;;;;;;;5014093;28;20022;-39
2023/01/18 03:03:29;;;;;;;1.73;0.30;;;;;;;;;;5013744;28;20026;-38
2023/01/18 03:05:57;;;;;;;1.50;0.40;;;;;;;;;;5014010;28;20053;-39
2023/01/18 03:08:37;;;;;;;0.30;0.30;;;;;;;;;;5013811;28;20018;-39
2023/01/18 03:11:04;;;;;;;0.45;0.45;;;;;;;;;;5014009;28;20033;-39
2023/01/18 03:13:40;;;;;;;0.40;0.40;;;;;;;;;;5013844;28;20079;-39
2023/01/18 03:16:08;;;;;;;0.20;0.20;;;;;;;;;;5013362;28;20026;-39
2023/01/18 03:19:00;;;;;;;0.88;0.65;;;;;;;;;;5013317;28;20034;-39
2023/01/18 03:21:43;;;;;;;0.30;0.30;;;;;;;;;;5002216;28;20042;-43
2023/01/18 03:24:10;;;;;;;0.30;0.30;;;;;;;;;;5013286;28;20381;-39
2023/01/18 03:26:41;;;;;;;0.40;0.40;;;;;;;;;;4979526;28;20057;-39
2023/01/18 03:34:55;;;;;;;0.73;0.50;;;;;;;;;;5013242;28;20173;-39
2023/01/18 03:37:31;;;;;;;0.38;0.38;;;;;;;;;;5013137;28;20050;-39
2023/01/18 03:40:01;;;;;;;0.50;0.50;;;;;;;;;;5013120;28;20068;-39
2023/01/18 03:42:29;;;;;;;0.40;0.40;;;;;;;;;;5012959;28;20384;-39
2023/01/18 03:44:54;;;;;;;0.20;0.20;;;;;;;;;;5013015;28;20037;-39
2023/01/18 03:47:20;;;;;;;0.65;0.50;;;;;;;;;;5012851;28;20026;-39
2023/01/18 03:49:45;;;;;;;0.30;0.30;;;;;;;;;;5012983;28;20133;-39
2023/01/18 03:52:10;;;;;;;0.28;0.28;;;;;;;;;;5012784;28;20037;-39
2023/01/18 03:54:39;;;;;;;0.50;0.50;;;;;;;;;;5012527;28;20383;-39
2023/01/18 03:57:14;;;;;;;0.20;0.20;;;;;;;;;;4994365;28;20073;-39
2023/01/18 03:59:39;;;;;;;0.20;0.20;;;;;;;;;;5012716;28;20109;-39
2023/01/18 04:02:06;;;;;;;0.63;0.50;;;;;;;;;;5012986;28;20026;-39
2023/01/18 04:04:31;;;;;;;0.65;0.57;;;;;;;;;;5012694;28;20388;-39
2023/01/18 04:06:57;;;;;;;0.43;0.38;;;;;;;;;;5012492;28;20025;-40
2023/01/18 04:09:23;;;;;;;0.30;0.30;;;;;;;;;;5012786;28;20061;-39
2023/01/18 04:11:48;;;;;;;0.30;0.30;;;;;;;;;;4995302;28;20132;-39
2023/01/18 04:14:14;;;;;;;0.22;0.22;;;;;;;;;;5012370;28;20594;-39
2023/01/18 04:16:39;;;;;;;8.40;0.77;;;;;;;;;;5012549;28;20033;-39
2023/01/18 04:19:06;;;;;;;0.80;0.40;;;;;;;;;;5012354;28;20381;-39
2023/01/18 04:21:31;;;;;;;1.50;1.15;;;;;;;;;;5012344;28;20388;-39
2023/01/18 04:23:57;;;;;;;0.32;0.32;;;;;;;;;;5012403;28;20022;-39
2023/01/18 04:26:22;;;;;;;0.32;0.32;;;;;;;;;;5012410;28;20544;-39
2023/01/18 04:28:47;;;;;;;1.00;0.40;;;;;;;;;;5012436;28;20405;-39
2023/01/18 04:31:13;;;;;;;0.20;0.20;;;;;;;;;;5012167;28;20025;-39
2023/01/18 04:33:38;;;;;;;0.30;0.30;;;;;;;;;;5012403;28;20044;-39
2023/01/18 04:36:03;;;;;;;0.40;0.40;;;;;;;;;;5012108;28;20476;-38
2023/01/18 04:38:29;;;;;;;0.30;0.30;;;;;;;;;;5012133;28;20037;-40
2023/01/18 04:40:54;;;;;;;0.52;0.35;;;;;;;;;;5012041;28;20040;-39
2023/01/18 04:43:19;;;;;;;0.40;0.40;;;;;;;;;;5011688;28;20088;-39
2023/01/18 04:45:54;;;;;;;0.85;0.35;;;;;;;;;;5011980;28;20038;-39
2023/01/18 04:48:20;;;;;;;0.50;0.47;;;;;;;;;;5012014;28;20444;-39
2023/01/18 04:50:47;;;;;;;0.35;0.35;;;;;;;;;;5011910;28;20049;-39
2023/01/18 04:53:13;;;;;;;0.20;0.20;;;;;;;;;;5011879;28;20033;-39
2023/01/18 04:55:38;;;;;;;0.50;0.40;;;;;;;;;;5012052;28;20025;-39
2023/01/18 04:58:03;;;;;;;0.20;0.20;;;;;;;;;;5011930;28;20042;-39
2023/01/18 05:00:29;;;;;;;0.63;0.50;;;;;;;;;;5011954;28;20029;-39
2023/01/18 05:02:54;;;;;;;1.05;0.60;;;;;;;;;;5011980;28;20056;-39
2023/01/18 05:05:20;;;;;;;0.30;0.30;;;;;;;;;;5011959;28;20017;-39
2023/01/18 05:07:45;;;;;;;0.40;0.40;;;;;;;;;;5011331;28;20388;-39
2023/01/18 05:10:11;;;;;;;0.30;0.30;;;;;;;;;;5011605;28;20542;-39
2023/01/18 05:12:36;;;;;;;0.65;0.50;;;;;;;;;;5011745;28;20029;-39
2023/01/18 05:15:02;;;;;;;0.40;0.40;;;;;;;;;;5011636;28;20346;-39
2023/01/18 05:17:29;;;;;;;0.30;0.30;;;;;;;;;;5011315;28;20050;-39
2023/01/18 05:19:54;;;;;;;0.40;0.40;;;;;;;;;;5011866;28;20125;-39
2023/01/18 05:22:21;;;;;;;1.30;0.40;;;;;;;;;;5011743;28;20433;-39
2023/01/18 05:24:47;;;;;;;0.50;0.50;;;;;;;;;;5011521;28;20022;-39
2023/01/18 05:27:12;;;;;;;0.55;0.55;;;;;;;;;;5011661;28;20026;-39
2023/01/18 05:29:38;;;;;;;0.55;0.55;;;;;;;;;;5011521;28;20036;-39
2023/01/18 05:32:05;;;;;;;0.52;0.50;;;;;;;;;;5011515;28;20045;-39
2023/01/18 05:34:30;;;;;;;0.25;0.25;;;;;;;;;;5011431;28;20018;-39
2023/01/18 05:36:56;;;;;;;0.30;0.30;;;;;;;;;;5011440;28;20038;-39
2023/01/18 05:39:21;;;;;;;0.20;0.20;;;;;;;;;;5011324;28;20041;-39
2023/01/18 05:41:46;;;;;;;0.38;0.38;;;;;;;;;;5011200;28;20054;-41
2023/01/18 05:44:12;;;;;;;0.50;0.50;;;;;;;;;;5011565;28;20033;-39
2023/01/18 05:46:37;;;;;;;0.40;0.40;;;;;;;;;;5011228;28;20088;-39
2023/01/18 05:49:03;;;;;;;0.40;0.40;;;;;;;;;;5011376;28;20096;-39
2023/01/18 05:51:28;;;;;;;0.47;0.35;;;;;;;;;;5011291;28;20026;-39
2023/01/18 05:53:53;;;;;;;0.40;0.40;;;;;;;;;;5011196;28;20095;-39
2023/01/18 05:56:19;;;;;;;0.75;0.47;;;;;;;;;;5011094;28;20034;-39
2023/01/18 05:58:45;;;;;;;0.77;0.65;;;;;;;;;;5011166;28;20037;-39
2023/01/18 06:01:10;;;;;;;0.50;0.50;;;;;;;;;;5011149;28;20045;-39
2023/01/18 06:03:36;;;;;;;0.30;0.30;;;;;;;;;;5011190;28;20029;-39
2023/01/18 06:06:01;;;;;;;0.40;0.40;;;;;;;;;;5011490;28;20149;-39
2023/01/18 06:08:26;;;;;;;0.40;0.40;;;;;;;;;;5011274;28;20079;-38
2023/01/18 06:10:55;;;;;;;0.40;0.40;;;;;;;;;;5011213;28;20117;-38
2023/01/18 06:13:22;;;;;;;0.30;0.30;;;;;;;;;;5011053;28;20025;-39
2023/01/18 06:15:47;;;;;;;0.30;0.30;;;;;;;;;;5011281;28;20030;-39
2023/01/18 06:18:13;;;;;;;0.52;0.50;;;;;;;;;;5011140;28;20108;-39
2023/01/18 06:20:38;;;;;;;0.77;0.50;;;;;;;;;;5014706;28;20034;-39
2023/01/18 06:23:03;;;;;;;0.47;0.47;;;;;;;;;;4996938;28;20530;-39
2023/01/18 06:25:29;;;;;;;0.77;0.50;;;;;;;;;;5014442;28;20029;-39
2023/01/18 06:27:54;;;;;;;0.50;0.50;;;;;;;;;;5014441;28;20704;-39
2023/01/18 06:30:20;;;;;;;1.17;0.60;;;;;;;;;;5014233;28;20395;-39
2023/01/18 06:32:47;;;;;;;0.80;0.80;;;;;;;;;;5014339;28;20029;-39
2023/01/18 06:35:12;;;;;;;0.63;0.63;;;;;;;;;;5014281;28;20025;-39
2023/01/18 06:37:38;;;;;;;0.30;0.30;;;;;;;;;;4996503;28;20535;-39
2023/01/18 06:40:04;;;;;;;0.50;0.50;;;;;;;;;;5014233;28;20113;-39
2023/01/18 06:42:29;;;;;;;0.57;0.57;;;;;;;;;;5013896;28;20046;-39
2023/01/18 06:44:55;;;;;;;0.50;0.50;;;;;;;;;;5014705;28;20031;-39
2023/01/18 06:47:20;;;;;;;3.95;0.47;;;;;;;;;;5014311;28;20017;-39
2023/01/18 06:49:49;;;;;;;0.88;0.80;;;;;;;;;;5013997;28;20096;-39
2023/01/18 06:52:15;;;;;;;1.25;1.08;;;;;;;;;;5013979;28;20026;-39
2023/01/18 06:54:41;;;;;;;0.55;0.52;;;;;;;;;;4996361;28;20396;-39
2023/01/18 06:57:06;;;;;;;0.70;0.70;;;;;;;;;;5013780;28;20034;-39
2023/01/18 06:59:32;;;;;;;0.93;0.75;;;;;;;;;;5013867;28;20033;-39
2023/01/18 07:01:57;;;;;;;0.40;0.40;;;;;;;;;;5014081;28;20022;-39
2023/01/18 07:04:23;;;;;;;0.50;0.50;;;;;;;;;;5013618;28;20539;-39
2023/01/18 07:06:48;;;;;;;1.33;0.40;;;;;;;;;;5013583;28;20061;-39
2023/01/18 07:09:14;;;;;;;0.35;0.35;;;;;;;;;;5013852;28;20038;-39
2023/01/18 07:11:42;;;;;;;0.65;0.63;;;;;;;;;;5013767;28;20176;-38
2023/01/18 07:14:10;;;;;;;0.50;0.30;;;;;;;;;;5013650;28;20384;-38
2023/01/18 07:16:36;;;;;;;0.50;0.50;;;;;;;;;;5013716;28;20033;-38
2023/01/18 07:19:02;;;;;;;0.85;0.60;;;;;;;;;;5013472;28;20037;-38
2023/01/18 07:21:28;;;;;;;1.05;0.90;;;;;;;;;;5013523;28;20514;-39
2023/01/18 07:23:54;;;;;;;0.38;0.38;;;;;;;;;;5013437;28;20045;-39
2023/01/18 07:26:20;;;;;;;0.43;0.40;;;;;;;;;;5013204;28;20028;-38
2023/01/18 07:28:45;;;;;;;0.35;0.35;;;;;;;;;;5013385;28;20105;-38
2023/01/18 07:31:11;;;;;;;0.30;0.30;;;;;;;;;;5013043;28;20109;-39
2023/01/18 07:33:36;;;;;;;1.98;0.40;;;;;;;;;;5013201;28;20089;-39
2023/01/18 07:36:06;;;;;;;0.65;0.65;;;;;;;;;;5013433;28;20463;-39
2023/01/18 07:38:32;;;;;;;0.52;0.47;;;;;;;;;;5012973;28;20459;-39
2023/01/18 07:40:58;;;;;;;0.43;0.43;;;;;;;;;;5013074;28;20045;-38
2023/01/18 07:43:24;;;;;;;0.47;0.40;;;;;;;;;;5012796;28;20059;-38
2023/01/18 07:45:53;;;;;;;0.40;0.40;;;;;;;;;;5013064;28;20116;-38
2023/01/18 07:48:19;;;;;;;0.30;0.30;;;;;;;;;;5013054;28;20061;-38
2023/01/18 07:50:51;;;;;;;0.63;0.38;;;;;;;;;;5013125;28;20049;-39
2023/01/18 07:53:17;;;;;;;0.40;0.40;;;;;;;;;;5013054;28;20038;-39
2023/01/18 07:55:43;;;;;;;0.40;0.40;;;;;;;;;;5012820;28;20068;-39
2023/01/18 07:58:09;;;;;;;0.52;0.40;;;;;;;;;;5012682;28;20082;-39
2023/01/18 08:00:34;;;;;;;0.47;0.47;;;;;;;;;;5013006;28;20093;-39
2023/01/18 08:03:00;;;;;;;0.55;0.55;;;;;;;;;;5012923;28;20432;-39
2023/01/18 08:05:26;;;;;;;0.40;0.40;;;;;;;;;;5012574;28;20080;-39
2023/01/18 08:07:52;;;;;;;0.32;0.32;;;;;;;;;;5012583;28;20030;-38
2023/01/18 08:10:18;;;;;;;0.28;0.28;;;;;;;;;;5012559;28;20037;-39
2023/01/18 08:12:44;;;;;;;0.73;0.40;;;;;;;;;;5012485;28;20084;-39
2023/01/18 08:15:10;;;;;;;0.50;0.50;;;;;;;;;;4994823;28;20045;-38
2023/01/18 08:17:36;;;;;;;0.38;0.38;;;;;;;;;;5012371;28;20037;-38
2023/01/18 08:20:03;;;;;;;0.55;0.50;;;;;;;;;;5012459;28;20022;-38
2023/01/18 08:22:29;;;;;;;0.95;0.75;;;;;;;;;;5012236;28;20438;-38
2023/01/18 08:24:54;;;;;;;0.68;0.68;;;;;;;;;;5012593;28;20026;-39
2023/01/18 08:27:19;;;;;;;0.75;0.57;;;;;;;;;;5012175;28;20033;-39
2023/01/18 08:29:45;;;;;;;1.75;0.70;;;;;;;;;;5011859;28;20021;-39
2023/01/18 08:32:11;;;;;;;1.65;0.80;;;;;;;;;;5012364;28;20096;-39
2023/01/18 08:34:36;;;;;;;1.08;1.00;;;;;;;;;;5012182;28;20468;-39
2023/01/18 08:37:02;;;;;;;0.52;0.52;;;;;;;;;;5012013;28;20037;-42
2023/01/18 08:39:27;;;;;;;2.03;1.08;;;;;;;;;;5012255;28;20419;-38
2023/01/18 08:41:52;;;;;;;1.48;1.38;;;;;;;;;;5011307;28;20050;-39
2023/01/18 08:44:18;;;;;;;0.95;0.75;;;;;;;;;;5011994;28;20030;-39
2023/01/18 08:46:43;;;;;;;0.82;0.82;;;;;;;;;;5011903;28;20435;-38
2023/01/18 08:49:09;;;;;;;0.80;0.80;;;;;;;;;;5012063;28;20060;-38
2023/01/18 08:51:35;;;;;;;0.50;0.50;;;;;;;;;;4994312;28;20460;-38
2023/01/18 08:54:00;;;;;;;1.38;0.70;;;;;;;;;;5012172;28;20030;-39
2023/01/18 08:56:26;;;;;;;4.40;1.27;;;;;;;;;;5011759;28;20026;-38
2023/01/18 08:58:51;;;;;;;1.30;0.88;;;;;;;;;;5011778;28;20057;-39
2023/01/18 09:01:17;;;;;;;3.92;0.70;;;;;;;;;;5011752;28;20036;-38
2023/01/18 09:03:46;;;;;;;0.40;0.40;;;;;;;;;;5011854;28;20022;-39
2023/01/18 09:06:12;;;;;;;0.77;0.47;;;;;;;;;;5011586;28;20109;-39
2023/01/18 09:08:38;;;;;;;1.20;0.75;;;;;;;;;;4994098;28;20109;-38
2023/01/18 09:11:05;;;;;;;0.68;0.60;;;;;;;;;;4994255;28;20048;-39
2023/01/18 09:13:31;;;;;;;0.65;0.65;;;;;;;;;;5011840;28;20116;-39
2023/01/18 09:16:01;;;;;;;2.08;1.00;;;;;;;;;;4993942;28;20491;-40
2023/01/18 09:18:27;;;;;;;1.02;0.85;;;;;;;;;;4993848;28;20045;-39
2023/01/18 09:20:55;;;;;;;1.30;0.98;;;;;;;;;;5011524;28;20044;-38
2023/01/18 09:23:21;;;;;;;0.98;0.82;;;;;;;;;;5011580;28;20498;-39
2023/01/18 09:25:47;;;;;;;0.70;0.70;;;;;;;;;;5011531;28;20048;-39
2023/01/18 09:28:13;;;;;;;4.20;1.35;;;;;;;;;;5011463;28;20014;-39
2023/01/18 09:30:38;;;;;;;1.00;0.80;;;;;;;;;;5011497;28;20048;-39
2023/01/18 09:33:04;;;;;;;1.40;1.30;;;;;;;;;;4993860;28;20524;-39
2023/01/18 09:35:30;;;;;;;2.25;0.80;;;;;;;;;;4993973;28;20026;-39
2023/01/18 09:37:56;;;;;;;1.23;1.13;;;;;;;;;;5011349;28;20026;-39
2023/01/18 09:40:23;;;;;;;0.63;0.60;;;;;;;;;;5011345;28;20487;-39
2023/01/18 09:42:50;;;;;;;0.68;0.60;;;;;;;;;;5011302;28;20056;-39
2023/01/18 09:45:30;;;;;;;0.82;0.82;;;;;;;;;;5011127;28;20088;-39
2023/01/18 09:47:59;;;;;;;0.75;0.63;;;;;;;;;;5011303;28;20030;-40
2023/01/18 09:50:25;;;;;;;0.77;0.40;;;;;;;;;;5011263;28;20109;-39
2023/01/18 09:53:20;;;;;;;0.40;0.40;;;;;;;;;;5012196;28;20034;-39
2023/01/18 09:55:52;;;;;;;1.05;1.00;;;;;;;;;;4928022;28;20070;-39
2023/01/18 09:58:27;;;;;;;0.77;0.77;;;;;;;;;;5015196;28;20038;-39
2023/01/18 10:00:57;;;;;;;0.60;0.55;;;;;;;;;;5015022;28;20109;-39
2023/01/18 10:03:42;;;;;;;0.60;0.60;;;;;;;;;;5014890;28;20032;-39
2023/01/18 10:06:14;;;;;;;0.52;0.52;;;;;;;;;;5015190;28;20038;-39
2023/01/18 10:08:46;;;;;;;0.57;0.57;;;;;;;;;;5014922;28;20033;-39
2023/01/18 10:11:17;;;;;;;0.85;0.52;;;;;;;;;;5015046;28;20518;-39
2023/01/18 10:14:09;;;;;;;0.95;0.68;;;;;;;;;;5014766;28;20455;-39
2023/01/18 10:16:36;;;;;;;0.70;0.70;;;;;;;;;;4977052;28;20473;-39
2023/01/18 10:19:02;;;;;;;1.13;0.95;;;;;;;;;;5014634;28;20048;-40
2023/01/18 10:21:31;;;;;;;1.75;1.17;;;;;;;;;;5014580;28;20026;-39
2023/01/18 10:24:00;;;;;;;1.40;1.30;;;;;;;;;;5014590;28;20460;-39
2023/01/18 10:26:30;;;;;;;3.50;1.10;;;;;;;;;;5014441;28;20077;-39
2023/01/18 10:29:04;;;;;;;1.45;1.20;;;;;;;;;;5014433;28;20037;-39
2023/01/18 10:31:43;;;;;;;2.38;1.67;;;;;;;;;;5014528;28;20496;-39
2023/01/18 10:34:13;;;;;;;1.45;1.35;;;;;;;;;;5014381;28;20029;-39
2023/01/18 10:36:42;;;;;;;3.28;1.70;;;;;;;;;;5014486;28;20029;-39
2023/01/18 10:39:40;;;;;;;1.08;0.98;;;;;;;;;;5014297;28;20472;-38
2023/01/18 10:42:16;;;;;;;3.00;1.10;;;;;;;;;;4960415;28;20042;-39
2023/01/18 10:44:41;;;;;;;1.65;1.10;;;;;;;;;;5014389;28;20128;-39
2023/01/18 10:47:07;;;;;;;3.15;2.13;;;;;;;;;;4996522;28;20172;-40
2023/01/18 10:49:40;;;;;;;1.80;1.20;;;;;;;;;;5014089;28;20026;-39
2023/01/18 10:52:21;;;;;;;1.27;1.15;;;;;;;;;;5014044;28;20030;-39
2023/01/18 10:54:48;;;;;;;2.03;1.38;;;;;;;;;;5013910;28;20491;-39
2023/01/18 10:57:19;;;;;;;1.75;1.17;;;;;;;;;;5014346;28;20037;-39
2023/01/18 10:59:44;;;;;;;1.25;1.00;;;;;;;;;;5013852;28;20033;-39
2023/01/18 11:02:36;;;;;;;2.13;1.60;;;;;;;;;;5013943;28;20045;-39
2023/01/18 11:05:18;;;;;;;1.60;1.13;;;;;;;;;;5007099;28;20069;-40
2023/01/18 11:07:43;;;;;;;2.03;1.35;;;;;;;;;;5013716;28;20076;-39
2023/01/18 11:10:26;;;;;;;1.45;1.20;;;;;;;;;;5013973;28;20056;-39
2023/01/18 11:12:53;;;;;;;0.95;0.68;;;;;;;;;;5013658;28;20468;-39
2023/01/18 11:15:18;;;;;;;3.95;1.58;;;;;;;;;;5013496;28;20030;-39
2023/01/18 11:17:43;;;;;;;1.00;0.73;;;;;;;;;;5013686;28;20050;-39
2023/01/18 11:20:16;;;;;;;1.05;0.60;;;;;;;;;;5013507;28;20029;-39
2023/01/18 11:22:54;;;;;;;2.47;1.52;;;;;;;;;;5013535;28;20537;-39
2023/01/18 11:25:19;;;;;;;1.13;1.02;;;;;;;;;;5013385;28;20052;-39
2023/01/18 11:27:45;;;;;;;2.38;1.50;;;;;;;;;;5013371;28;20093;-39
2023/01/18 11:30:32;;;;;;;2.65;1.73;;;;;;;;;;5013265;28;20069;-39
2023/01/18 11:32:58;;;;;;;1.95;1.10;;;;;;;;;;5013427;28;20487;-39
2023/01/18 11:35:35;;;;;;;1.88;1.25;;;;;;;;;;5013315;28;20075;-39
2023/01/18 11:38:02;;;;;;;1.55;1.45;;;;;;;;;;5013077;28;20112;-39
2023/01/18 11:40:32;;;;;;;2.60;1.48;;;;;;;;;;5013283;28;20428;-39
2023/01/18 11:43:02;;;;;;;1.90;1.23;;;;;;;;;;5012927;28;20077;-39
2023/01/18 11:45:39;;;;;;;2.83;1.95;;;;;;;;;;5012881;28;20026;-39
2023/01/18 11:48:23;;;;;;;1.30;1.20;;;;;;;;;;4995578;28;20040;-39
2023/01/18 11:50:58;;;;;;;1.08;1.05;;;;;;;;;;5012884;28;20029;-39
2023/01/18 11:53:40;;;;;;;1.90;1.38;;;;;;;;;;5012847;28;20041;-40
2023/01/18 11:56:12;;;;;;;4.17;2.20;;;;;;;;;;5013069;28;20030;-39
2023/01/18 11:58:39;;;;;;;4.40;2.40;;;;;;;;;;5012732;28;20038;-39
2023/01/18 12:01:20;;;;;;;2.75;1.95;;;;;;;;;;4995548;28;20030;-39
2023/01/18 12:04:04;;;;;;;4.13;2.78;;;;;;;;;;5012904;28;20034;-39
2023/01/18 12:06:35;;;;;;;2.97;2.15;;;;;;;;;;5012522;28;20105;-39
2023/01/18 12:09:19;;;;;;;1.63;1.30;;;;;;;;;;5012656;28;20029;-38
2023/01/18 12:11:44;;;;;;;2.97;1.88;;;;;;;;;;5012495;28;20053;-39
2023/01/18 12:14:16;;;;;;;2.08;1.58;;;;;;;;;;5012578;28;20025;-39
2023/01/18 12:17:05;;;;;;;3.28;1.40;;;;;;;;;;4993609;28;20029;-39
2023/01/18 12:19:40;;;;;;;3.17;1.42;;;;;;;;;;5012206;28;20038;-40
2023/01/18 12:22:14;;;;;;;3.25;1.73;;;;;;;;;;5012474;28;20038;-39
2023/01/18 12:24:46;;;;;;;1.92;0.98;;;;;;;;;;4994725;28;20540;-39
2023/01/18 12:27:21;;;;;;;2.20;1.45;;;;;;;;;;5012331;28;20030;-39
2023/01/18 12:29:54;;;;;;;2.38;1.67;;;;;;;;;;5012310;28;20034;-39
2023/01/18 12:32:38;;;;;;;2.28;1.85;;;;;;;;;;5012214;28;20030;-39
2023/01/18 12:35:16;;;;;;;1.95;1.58;;;;;;;;;;5012136;28;20021;-38
2023/01/18 12:37:47;;;;;;;0.93;0.85;;;;;;;;;;5011942;28;20033;-39
2023/01/18 12:40:25;;;;;;;2.35;1.70;;;;;;;;;;5012348;28;20088;-39
2023/01/18 12:42:54;;;;;;;5.85;2.00;;;;;;;;;;5011933;28;20050;-39
2023/01/18 12:45:39;;;;;;;1.90;1.67;;;;;;;;;;5011752;28;20080;-39
2023/01/18 12:48:17;;;;;;;2.22;1.83;;;;;;;;;;4994019;28;20045;-39
2023/01/18 12:50:45;;;;;;;5.00;2.85;;;;;;;;;;4994351;28;20471;-39
2023/01/18 12:53:14;;;;;;;2.60;2.28;;;;;;;;;;5011765;28;20068;-39
2023/01/18 12:55:43;;;;;;;1.85;1.50;;;;;;;;;;4994352;28;20030;-39
2023/01/18 12:58:13;;;;;;;1.17;1.08;;;;;;;;;;5011790;28;20038;-39
2023/01/18 13:00:45;;;;;;;2.38;1.30;;;;;;;;;;5011620;28;20108;-40
2023/01/18 13:03:16;;;;;;;1.85;1.10;;;;;;;;;;5011813;28;20034;-39
2023/01/18 13:05:51;;;;;;;3.03;1.98;;;;;;;;;;5012041;28;20041;-39
2023/01/18 13:08:31;;;;;;;3.90;2.17;;;;;;;;;;4994159;28;20114;-39
2023/01/18 13:11:02;;;;;;;2.22;0.88;;;;;;;;;;5011818;28;20431;-39
2023/01/18 13:13:29;;;;;;;1.80;1.40;;;;;;;;;;5011622;28;20026;-39
2023/01/18 13:15:57;;;;;;;1.85;1.45;;;;;;;;;;5011560;28;20030;-39
2023/01/18 13:18:39;;;;;;;4.68;2.47;;;;;;;;;;5011567;28;20088;-39
2023/01/18 13:21:11;;;;;;;2.83;1.80;;;;;;;;;;5011493;28;20037;-39
2023/01/18 13:23:40;;;;;;;1.60;0.90;;;;;;;;;;5011651;28;20057;-39
2023/01/18 13:26:06;;;;;;;15.07;5.70;;;;;;;;;;5011743;28;20434;-39
2023/01/18 13:28:32;;;;;;;2.25;1.70;;;;;;;;;;5013701;28;20105;-39
2023/01/18 13:30:59;;;;;;;1.27;1.20;;;;;;;;;;5015535;28;20506;-39
2023/01/18 13:33:47;;;;;;;4.30;1.45;;;;;;;;;;5015760;28;20387;-39
2023/01/18 13:36:16;;;;;;;2.33;1.60;;;;;;;;;;5014208;28;20034;-39
2023/01/18 13:39:01;;;;;;;3.35;2.53;;;;;;;;;;4997755;28;20034;-39
2023/01/18 13:41:28;;;;;;;2.25;1.90;;;;;;;;;;5014519;28;20507;-39
2023/01/18 13:44:14;;;;;;;1.27;1.17;;;;;;;;;;5015322;28;20508;-39
2023/01/18 13:46:41;;;;;;;1.48;0.90;;;;;;;;;;5013704;28;20030;-39
2023/01/18 13:49:45;;;;;;;1.75;1.40;;;;;;;;;;5015250;28;20489;-39
2023/01/18 13:52:30;;;;;;;1.75;1.27;;;;;;;;;;4916297;29;20082;-39
2023/01/18 13:54:55;;;;;;;3.53;1.45;;;;;;;;;;4916311;29;20127;-39
2023/01/18 13:57:22;;;;;;;3.40;1.67;;;;;;;;;;4974772;28;20128;-39
2023/01/18 13:59:49;;;;;;;2.65;1.60;;;;;;;;;;4997441;28;20026;-39
2023/01/18 14:02:15;;;;;;;2.97;1.60;;;;;;;;;;5015033;28;20029;-39
2023/01/18 14:04:41;;;;;;;1.92;1.33;;;;;;;;;;4997056;28;20083;-39
2023/01/18 14:07:16;;;;;;;2.15;1.33;;;;;;;;;;5014934;28;20136;-39
2023/01/18 14:09:43;;;;;;;1.10;0.75;;;;;;;;;;5014940;28;20481;-39
2023/01/18 14:12:10;;;;;;;1.67;1.35;;;;;;;;;;5014993;28;20034;-39
2023/01/18 14:14:54;;;;;;;1.08;0.95;;;;;;;;;;5014667;28;20518;-39
2023/01/18 14:17:20;;;;;;;2.13;1.20;;;;;;;;;;5014734;28;20096;-39
2023/01/18 14:19:51;;;;;;;1.38;0.77;;;;;;;;;;5014580;28;20460;-40
2023/01/18 14:22:25;;;;;;;1.20;0.80;;;;;;;;;;5014705;28;20026;-39
2023/01/18 14:24:54;;;;;;;3.03;0.98;;;;;;;;;;5014741;28;20396;-39
2023/01/18 14:27:20;;;;;;;1.52;0.80;;;;;;;;;;5014631;28;20100;-39
2023/01/18 14:29:48;;;;;;;1.33;1.13;;;;;;;;;;5014550;28;20377;-39
2023/01/18 14:32:17;;;;;;;0.75;0.73;;;;;;;;;;5014488;28;20029;-39
2023/01/18 14:34:43;;;;;;;1.02;0.90;;;;;;;;;;5014374;28;20639;-39
2023/01/18 14:37:41;;;;;;;2.17;1.25;;;;;;;;;;5014259;28;20026;-39
2023/01/18 14:40:14;;;;;;;2.10;1.05;;;;;;;;;;4959506;28;20087;-39
2023/01/18 14:42:53;;;;;;;1.08;0.98;;;;;;;;;;5014061;28;20054;-39
2023/01/18 14:45:31;;;;;;;1.45;0.93;;;;;;;;;;5014330;28;20034;-39
2023/01/18 14:47:59;;;;;;;1.40;1.30;;;;;;;;;;5013931;28;20034;-39
2023/01/18 14:50:26;;;;;;;1.48;1.00;;;;;;;;;;5014299;28;20026;-39
2023/01/18 14:52:52;;;;;;;1.35;1.20;;;;;;;;;;5014364;28;20091;-39
2023/01/18 14:55:28;;;;;;;1.40;0.75;;;;;;;;;;5014184;28;20104;-40
2023/01/18 14:58:09;;;;;;;1.45;1.35;;;;;;;;;;5013932;28;20081;-39
2023/01/18 15:00:42;;;;;;;0.80;0.65;;;;;;;;;;5013801;28;20029;-39
2023/01/18 15:03:11;;;;;;;1.73;1.48;;;;;;;;;;5013890;28;20056;-41
2023/01/18 15:05:37;;;;;;;1.40;0.40;;;;;;;;;;4996077;28;20057;-39
2023/01/18 15:08:02;;;;;;;2.33;1.33;;;;;;;;;;5014035;28;20064;-39
2023/01/18 15:10:28;;;;;;;1.42;0.82;;;;;;;;;;5013657;28;20014;-39
2023/01/18 15:12:56;;;;;;;2.20;1.73;;;;;;;;;;5013948;28;20463;-39
2023/01/18 15:15:21;;;;;;;3.75;2.05;;;;;;;;;;5013724;28;20106;-39
2023/01/18 15:17:48;;;;;;;0.93;0.70;;;;;;;;;;5013493;28;20124;-39
2023/01/18 15:20:13;;;;;;;2.30;2.08;;;;;;;;;;5013631;28;20033;-39
2023/01/18 15:22:39;;;;;;;1.55;1.13;;;;;;;;;;5013376;28;20116;-39
2023/01/18 15:25:13;;;;;;;2.15;1.08;;;;;;;;;;5013508;28;20063;-39
2023/01/18 15:27:39;;;;;;;1.38;1.00;;;;;;;;;;5013338;28;20484;-39
2023/01/18 15:30:10;;;;;;;2.15;1.52;;;;;;;;;;5013590;28;20092;-39